Terminal Aerodrome Forecast
Issued by NWS Detroit/Pontiac, MI

Home | Current Version | Previous Version | Text Only | Print | Product List | Glossary On
Versions: 1 2 3 4 5 6 7 8 9 10 11 12 13
457
FTUS43 KDTX 202320
TAFFNT
TAF
KFNT 202320Z 2100/2124 33005KT P6SM SCT045
     FM210200 VRB03KT P6SM SCT250
      TEMPO 2109/2112 6SM BR
     FM211800 25006KT P6SM SCT250=

USA.gov is the U.S. government's official web portal to all federal, state and local government web resources and services.